Terminal Aerodrome Forecast
Issued by NWS

Home | Current Version | Previous Version | Text Only | Print | Product List | Glossary On
Versions: 1 2 3 4 5 6 7 8 9 10 11 12 13 14 15
000
FTUS45 KRIW 220539
TAFWRL
TAF
KWRL 220539Z 2206/2306 VRB03KT P6SM VCFG BKN070
     FM221200 VRB05KT P6SM VCFG SCT005 SCT070
     FM221800 16007KT P6SM SKC
     FM230100 15007KT P6SM BKN120=

USA.gov is the U.S. government's official web portal to all federal, state and local government web resources and services.